createdAt,value
2023-04-15T00:02:49.803Z,1.70
2023-04-15T00:12:49.679Z,1.60
2023-04-15T00:22:49.674Z,1.80
2023-04-15T00:32:49.691Z,1.60
2023-04-15T00:42:49.727Z,1.70
2023-04-15T00:52:49.716Z,1.40
2023-04-15T01:02:49.759Z,1.30
2023-04-15T01:12:49.718Z,1.20
2023-04-15T01:22:49.739Z,1.30
2023-04-15T01:32:49.754Z,1.20
2023-04-15T01:42:49.776Z,1.00
2023-04-15T01:52:49.750Z,1.10
2023-04-15T02:02:49.815Z,1.00
2023-04-15T02:12:49.758Z,0.90
2023-04-15T02:22:49.757Z,0.80
2023-04-15T02:32:49.818Z,1.00
2023-04-15T02:42:49.821Z,0.80
2023-04-15T02:52:49.830Z,0.80
2023-04-15T03:02:49.937Z,0.80
2023-04-15T03:12:49.863Z,0.70
2023-04-15T03:22:49.815Z,0.70
2023-04-15T03:32:49.846Z,0.60
2023-04-15T03:42:49.834Z,0.70
2023-04-15T03:52:51.124Z,0.70
2023-04-15T04:02:49.973Z,0.70
2023-04-15T04:12:49.880Z,0.70
2023-04-15T04:23:49.914Z,0.60
2023-04-15T04:34:49.900Z,0.60
2023-04-15T04:45:49.913Z,0.60
2023-04-15T04:56:49.910Z,0.50
2023-04-15T05:07:49.925Z,0.60
2023-04-15T05:18:49.909Z,0.50
2023-04-15T05:29:49.932Z,0.80
2023-04-15T05:40:49.981Z,0.70
2023-04-15T05:51:49.928Z,1.10
2023-04-15T06:02:49.985Z,3.60
2023-04-15T06:13:49.937Z,4.80
2023-04-15T06:24:49.951Z,6.30
2023-04-15T06:35:49.957Z,6.40
2023-04-15T06:46:49.971Z,6.80
2023-04-15T06:57:49.961Z,6.30
2023-04-15T07:08:49.984Z,7.00
2023-04-15T07:19:49.974Z,6.40
2023-04-15T07:30:50.048Z,6.00
2023-04-15T07:41:50.008Z,6.10
2023-04-15T07:55:50.022Z,5.60
2023-04-15T08:09:50.057Z,5.60
2023-04-15T08:20:50.003Z,4.90
2023-04-15T08:34:50.020Z,4.50
2023-04-15T08:45:50.035Z,3.90
2023-04-15T08:59:50.029Z,4.30
2023-04-15T09:10:50.729Z,3.90
2023-04-15T09:24:50.024Z,3.80
2023-04-15T09:38:50.040Z,3.70
2023-04-15T09:52:50.049Z,3.30
2023-04-15T10:06:50.051Z,3.40
2023-04-15T10:19:50.062Z,3.40
2023-04-15T10:31:50.143Z,3.00
2023-04-15T10:44:50.092Z,3.40
2023-04-15T10:58:50.143Z,3.70
2023-04-15T11:12:50.117Z,3.60
2023-04-15T11:26:50.143Z,3.10
2023-04-15T11:40:50.823Z,3.80
2023-04-15T11:54:50.117Z,3.70
2023-04-15T12:08:50.253Z,3.60
2023-04-15T12:22:50.161Z,3.40
2023-04-15T12:36:50.167Z,3.30
2023-04-15T12:50:50.183Z,2.70
2023-04-15T13:04:50.192Z,2.20
2023-04-15T13:18:50.174Z,2.40
2023-04-15T13:32:50.628Z,2.30
2023-04-15T13:46:50.204Z,1.90
2023-04-15T14:00:50.226Z,1.90
2023-04-15T14:14:50.258Z,3.50
2023-04-15T14:28:50.205Z,2.90
2023-04-15T14:42:50.267Z,3.80
2023-04-15T14:56:50.275Z,3.40
2023-04-15T15:10:50.976Z,4.20
2023-04-15T15:24:50.258Z,4.00
2023-04-15T15:38:50.327Z,4.00
2023-04-15T15:52:50.318Z,3.70
2023-04-15T16:06:50.371Z,4.60
2023-04-15T16:20:50.342Z,3.20
2023-04-15T16:34:50.339Z,3.80
2023-04-15T16:48:50.405Z,3.10
2023-04-15T17:01:50.459Z,2.90
2023-04-15T17:12:50.392Z,3.00
2023-04-15T17:23:50.447Z,2.50
2023-04-15T17:37:50.400Z,2.50
2023-04-15T17:51:50.393Z,2.60
2023-04-15T18:06:50.372Z,3.10
2023-04-15T18:20:50.370Z,3.00
2023-04-15T18:34:50.386Z,3.10
2023-04-15T18:47:50.403Z,2.90
2023-04-15T19:00:50.428Z,2.70
2023-04-15T19:10:50.483Z,2.60
2023-04-15T19:23:50.425Z,2.60
2023-04-15T19:36:50.426Z,2.60
2023-04-15T19:49:52.551Z,2.50
2023-04-15T20:02:50.598Z,2.60
2023-04-15T20:15:50.514Z,2.50
2023-04-15T20:28:50.487Z,2.20
2023-04-15T20:41:50.492Z,2.30
2023-04-15T20:54:50.505Z,2.20
2023-04-15T21:07:50.513Z,2.10
2023-04-15T21:20:50.527Z,1.90
2023-04-15T21:33:50.529Z,1.90
2023-04-15T21:46:50.568Z,1.90
2023-04-15T21:59:50.520Z,2.00
2023-04-15T22:12:50.537Z,1.90
2023-04-15T22:25:50.586Z,2.00
2023-04-15T22:38:50.565Z,1.90
2023-04-15T22:51:50.569Z,1.80
2023-04-15T23:04:50.628Z,1.80
2023-04-15T23:17:50.627Z,1.60
2023-04-15T23:30:50.576Z,1.40
2023-04-15T23:43:50.582Z,1.50
2023-04-15T23:56:50.575Z,1.30
